Wetterdaten: Woche 22.03.10 - 28.03.10 (KW12)
Datum Zeit Temp. Innen Temp. Aussen UV X Diff Temp. Feuchte Inne Feuchte Auss Sonnenschein Luftdruck Regen ab 0,1 Wind Sonnenschein Windben
22.03.2010 00:00 15,8 C 6,8 C 0,0 UV-I 0,0 C 61 % 94 % 0 % 1022,4 hPa 0,0 l/m 0,0 km/h (0 Bft) 0,00 h 0,0 km/h (0 Bft)
22.03.2010 01:00 15,8 C 7,0 C 0,0 UV-I 0,0 C 61 % 95 % 0 % 1022,3 hPa 0,0 l/m 0,0 km/h (0 Bft) 0,00 h 0,0 km/h (0 Bft)
22.03.2010 02:00 15,8 C 7,3 C 0,0 UV-I 0,0 C 61 % 95 % 0 % 1022,5 hPa 0,0 l/m 0,0 km/h (0 Bft) 0,00 h 0,0 km/h (0 Bft)
22.03.2010 03:00 15,8 C 7,5 C 0,0 UV-I 0,0 C 61 % 95 % 0 % 1022,2 hPa 0,0 l/m 0,0 km/h (0 Bft) 0,00 h 0,0 km/h (0 Bft)
22.03.2010 04:00 15,8 C 7,6 C 0,0 UV-I 0,0 C 61 % 95 % 0 % 1021,9 hPa 0,0 l/m 0,1 km/h (0 Bft) 0,00 h 0,1 km/h (0 Bft)
22.03.2010 05:00 15,8 C 7,8 C 0,0 UV-I 0,0 C 61 % 95 % 0 % 1022,0 hPa 0,0 l/m 0,4 km/h (0 Bft) 0,00 h 0,4 km/h (0 Bft)
22.03.2010 06:00 15,7 C 7,8 C 0,0 UV-I 0,0 C 61 % 95 % 0 % 1021,9 hPa 0,0 l/m 0,0 km/h (0 Bft) 0,00 h 0,0 km/h (0 Bft)
22.03.2010 07:00 15,6 C 7,7 C 0,0 UV-I 0,0 C 61 % 95 % 0 % 1022,1 hPa 0,0 l/m 0,0 km/h (0 Bft) 0,00 h 0,1 km/h (0 Bft)
22.03.2010 08:00 15,8 C 8,3 C 0,1 UV-I 0,5 C 61 % 95 % 14 % 1022,5 hPa 0,0 l/m 2,4 km/h (1 Bft) 0,00 h 2,3 km/h (1 Bft)
22.03.2010 09:00 15,9 C 9,2 C 0,5 UV-I 0,8 C 61 % 94 % 24 % 1022,6 hPa 0,0 l/m 3,4 km/h (1 Bft) 0,00 h 4,5 km/h (1 Bft)
22.03.2010 10:00 16,0 C 9,8 C 0,6 UV-I 0,9 C 60 % 90 % 25 % 1022,7 hPa 0,0 l/m 3,6 km/h (1 Bft) 0,00 h 2,8 km/h (1 Bft)
22.03.2010 11:00 16,0 C 10,0 C 0,3 UV-I 0,3 C 59 % 87 % 9 % 1022,7 hPa 0,0 l/m 3,6 km/h (1 Bft) 0,00 h 3,7 km/h (1 Bft)
22.03.2010 12:00 16,2 C 11,0 C 2,5 UV-I 1,9 C 59 % 83 % 53 % 1022,4 hPa 0,0 l/m 5,1 km/h (1 Bft) 0,17 h 5,2 km/h (1 Bft)
22.03.2010 13:00 16,7 C 11,8 C 1,8 UV-I 1,4 C 57 % 75 % 40 % 1022,0 hPa 0,0 l/m 6,6 km/h (2 Bft) 0,00 h 6,2 km/h (2 Bft)
22.03.2010 14:00 17,1 C 12,6 C 2,1 UV-I 1,4 C 55 % 72 % 41 % 1021,8 hPa 0,1 l/m 6,2 km/h (2 Bft) 0,00 h 4,6 km/h (1 Bft)
22.03.2010 15:00 17,6 C 13,4 C 3,0 UV-I 2,3 C 54 % 68 % 64 % 1021,6 hPa 0,1 l/m 6,1 km/h (2 Bft) 0,27 h 5,1 km/h (1 Bft)
22.03.2010 16:00 18,6 C 14,2 C 2,8 UV-I 3,6 C 50 % 62 % 87 % 1022,2 hPa 0,0 l/m 7,0 km/h (2 Bft) 0,73 h 6,3 km/h (2 Bft)
22.03.2010 17:00 18,5 C 13,9 C 0,4 UV-I 0,9 C 49 % 59 % 25 % 1021,0 hPa 0,0 l/m 6,4 km/h (2 Bft) 0,00 h 6,0 km/h (2 Bft)
22.03.2010 18:00 17,8 C 12,8 C 0,0 UV-I 0,0 C 50 % 63 % 0 % 1020,3 hPa 0,0 l/m 1,6 km/h (1 Bft) 0,00 h 1,8 km/h (1 Bft)
22.03.2010 19:00 17,1 C 11,2 C 0,0 UV-I 0,0 C 52 % 71 % 0 % 1019,9 hPa 0,0 l/m 0,5 km/h (0 Bft) 0,00 h 0,7 km/h (0 Bft)
22.03.2010 20:00 16,5 C 9,5 C 0,0 UV-I 0,0 C 53 % 77 % 0 % 1019,6 hPa 0,0 l/m 0,4 km/h (0 Bft) 0,00 h 0,6 km/h (0 Bft)
22.03.2010 21:00 16,3 C 8,2 C 0,0 UV-I 0,0 C 54 % 82 % 0 % 1019,7 hPa 0,0 l/m 0,3 km/h (0 Bft) 0,00 h 0,0 km/h (0 Bft)
22.03.2010 22:00 16,2 C 8,4 C 0,0 UV-I 0,3 C 54 % 82 % 0 % 1019,7 hPa 0,0 l/m 2,5 km/h (1 Bft) 0,00 h 1,9 km/h (1 Bft)
22.03.2010 23:00 16,1 C 8,6 C 0,0 UV-I 0,0 C 54 % 80 % 0 % 1019,4 hPa 0,0 l/m 1,2 km/h (1 Bft) 0,00 h 0,9 km/h (0 Bft)
23.03.2010 00:00 15,9 C 8,4 C 0,0 UV-I 0,0 C 54 % 82 % 0 % 1019,4 hPa 0,0 l/m 1,9 km/h (1 Bft) 0,00 h 2,3 km/h (1 Bft)
23.03.2010 01:00 15,9 C 8,0 C 0,0 UV-I 0,0 C 55 % 83 % 0 % 1019,2 hPa 0,0 l/m 2,0 km/h (1 Bft) 0,00 h 2,3 km/h (1 Bft)
23.03.2010 02:00 15,8 C 7,3 C 0,0 UV-I 0,0 C 55 % 85 % 0 % 1019,0 hPa 0,0 l/m 1,8 km/h (1 Bft) 0,00 h 1,8 km/h (1 Bft)
23.03.2010 03:00 15,7 C 7,6 C 0,0 UV-I 0,1 C 55 % 86 % 0 % 1018,9 hPa 0,0 l/m 2,1 km/h (1 Bft) 0,00 h 1,9 km/h (1 Bft)
23.03.2010 04:00 15,7 C 7,9 C 0,0 UV-I 0,0 C 55 % 85 % 0 % 1019,1 hPa 0,0 l/m 0,8 km/h (0 Bft) 0,00 h 0,9 km/h (0 Bft)
23.03.2010 05:00 15,7 C 8,2 C 0,0 UV-I 0,0 C 55 % 86 % 0 % 1019,4 hPa 0,0 l/m 1,5 km/h (1 Bft) 0,00 h 1,6 km/h (1 Bft)
23.03.2010 06:00 15,6 C 8,4 C 0,0 UV-I 0,0 C 56 % 87 % 0 % 1019,7 hPa 0,0 l/m 1,9 km/h (1 Bft) 0,00 h 1,6 km/h (1 Bft)
23.03.2010 07:00 15,6 C 8,3 C 0,0 UV-I 0,0 C 56 % 89 % 0 % 1020,1 hPa 0,0 l/m 1,1 km/h (1 Bft) 0,00 h 1,4 km/h (1 Bft)
23.03.2010 08:00 15,6 C 8,6 C 0,4 UV-I 0,8 C 57 % 89 % 22 % 1020,7 hPa 0,0 l/m 1,6 km/h (1 Bft) 0,00 h 1,6 km/h (1 Bft)
23.03.2010 09:00 15,9 C 9,5 C 0,8 UV-I 1,5 C 57 % 88 % 43 % 1021,0 hPa 0,0 l/m 1,6 km/h (1 Bft) 0,00 h 1,1 km/h (1 Bft)
23.03.2010 10:00 16,1 C 10,5 C 1,1 UV-I 1,7 C 56 % 84 % 48 % 1021,6 hPa 0,0 l/m 1,8 km/h (1 Bft) 0,00 h 2,0 km/h (1 Bft)
23.03.2010 11:00 16,3 C 11,3 C 1,6 UV-I 1,7 C 56 % 80 % 49 % 1021,7 hPa 0,0 l/m 2,1 km/h (1 Bft) 0,00 h 1,9 km/h (1 Bft)
23.03.2010 12:00 16,6 C 12,5 C 3,0 UV-I 2,3 C 55 % 78 % 64 % 1021,5 hPa 0,0 l/m 3,9 km/h (1 Bft) 0,17 h 3,6 km/h (1 Bft)
23.03.2010 13:00 17,7 C 14,5 C 5,6 UV-I 4,0 C 54 % 71 % 92 % 1021,8 hPa 0,0 l/m 4,1 km/h (1 Bft) 0,70 h 4,4 km/h (1 Bft)
23.03.2010 14:00 18,3 C 15,1 C 4,3 UV-I 2,8 C 52 % 68 % 65 % 1021,5 hPa 0,0 l/m 1,7 km/h (1 Bft) 0,37 h 1,8 km/h (1 Bft)
23.03.2010 15:00 18,8 C 16,0 C 2,8 UV-I 3,0 C 50 % 63 % 70 % 1021,6 hPa 0,0 l/m 1,8 km/h (1 Bft) 0,37 h 2,3 km/h (1 Bft)
23.03.2010 16:00 18,6 C 15,9 C 0,5 UV-I 0,8 C 50 % 64 % 24 % 1019,9 hPa 0,0 l/m 1,1 km/h (1 Bft) 0,00 h 1,4 km/h (1 Bft)
23.03.2010 17:00 18,4 C 15,6 C 0,2 UV-I 0,5 C 51 % 66 % 13 % 1019,3 hPa 0,0 l/m 1,3 km/h (1 Bft) 0,00 h 1,5 km/h (1 Bft)
23.03.2010 18:00 18,0 C 14,2 C 0,0 UV-I 0,0 C 52 % 70 % 0 % 1018,4 hPa 0,0 l/m 0,2 km/h (0 Bft) 0,00 h 0,4 km/h (0 Bft)
23.03.2010 19:00 17,6 C 12,5 C 0,0 UV-I 0,0 C 53 % 75 % 0 % 1017,9 hPa 0,0 l/m 0,0 km/h (0 Bft) 0,00 h 0,0 km/h (0 Bft)
23.03.2010 20:00 17,1 C 11,0 C 0,0 UV-I 0,0 C 54 % 79 % 0 % 1017,6 hPa 0,0 l/m 0,0 km/h (0 Bft) 0,00 h 0,0 km/h (0 Bft)
23.03.2010 21:00 16,8 C 9,8 C 0,0 UV-I 0,0 C 55 % 83 % 0 % 1017,1 hPa 0,0 l/m 0,1 km/h (0 Bft) 0,00 h 0,2 km/h (0 Bft)
23.03.2010 22:00 16,8 C 9,6 C 0,0 UV-I 0,0 C 55 % 83 % 0 % 1016,6 hPa 0,0 l/m 1,5 km/h (1 Bft) 0,00 h 1,4 km/h (1 Bft)
23.03.2010 23:00 16,7 C 9,6 C 0,0 UV-I 0,0 C 55 % 83 % 0 % 1015,9 hPa 0,0 l/m 2,9 km/h (1 Bft) 0,00 h 3,2 km/h (1 Bft)
24.03.2010 00:00 16,6 C 9,2 C 0,0 UV-I 0,0 C 55 % 84 % 0 % 1015,4 hPa 0,0 l/m 1,1 km/h (0 Bft) 0,00 h 1,4 km/h (1 Bft)
24.03.2010 01:00 16,6 C 8,9 C 0,0 UV-I 0,0 C 55 % 84 % 0 % 1015,2 hPa 0,0 l/m 0,8 km/h (0 Bft) 0,00 h 0,8 km/h (0 Bft)
24.03.2010 02:00 16,5 C 8,6 C 0,0 UV-I 0,0 C 55 % 85 % 0 % 1014,9 hPa 0,0 l/m 1,4 km/h (1 Bft) 0,00 h 2,1 km/h (1 Bft)
24.03.2010 03:00 16,4 C 8,3 C 0,0 UV-I 0,0 C 55 % 85 % 0 % 1014,3 hPa 0,0 l/m 3,3 km/h (1 Bft) 0,00 h 3,4 km/h (1 Bft)
24.03.2010 04:00 16,3 C 8,2 C 0,0 UV-I 0,0 C 55 % 85 % 0 % 1013,7 hPa 0,0 l/m 3,6 km/h (1 Bft) 0,00 h 2,7 km/h (1 Bft)
24.03.2010 05:00 16,1 C 8,0 C 0,0 UV-I 0,0 C 56 % 85 % 0 % 1013,2 hPa 0,0 l/m 4,7 km/h (1 Bft) 0,00 h 5,2 km/h (1 Bft)
24.03.2010 06:00 16,0 C 8,0 C 0,0 UV-I 0,0 C 56 % 85 % 0 % 1012,8 hPa 0,0 l/m 4,6 km/h (1 Bft) 0,00 h 4,5 km/h (1 Bft)
24.03.2010 07:00 16,0 C 8,1 C 0,0 UV-I 0,1 C 55 % 84 % 2 % 1012,6 hPa 0,0 l/m 5,8 km/h (2 Bft) 0,00 h 5,2 km/h (1 Bft)
24.03.2010 08:00 16,0 C 8,8 C 0,5 UV-I 0,9 C 56 % 83 % 27 % 1012,6 hPa 0,0 l/m 7,2 km/h (2 Bft) 0,00 h 7,7 km/h (2 Bft)
24.03.2010 09:00 16,2 C 10,1 C 1,6 UV-I 2,2 C 55 % 80 % 63 % 1012,4 hPa 0,0 l/m 12,0 km/h (2 Bft) 0,03 h 8,2 km/h (2 Bft)
24.03.2010 10:00 16,4 C 12,0 C 3,6 UV-I 3,1 C 54 % 74 % 87 % 1012,3 hPa 0,0 l/m 12,5 km/h (3 Bft) 0,73 h 10,7 km/h (2 Bft)
24.03.2010 11:00 16,7 C 14,5 C 6,2 UV-I 4,2 C 54 % 68 % 99 % 1012,0 hPa 0,0 l/m 10,1 km/h (2 Bft) 0,90 h 9,0 km/h (2 Bft)
24.03.2010 12:00 17,6 C 17,2 C 8,2 UV-I 5,3 C 53 % 61 % 100 % 1011,5 hPa 0,0 l/m 7,9 km/h (2 Bft) 0,93 h 6,8 km/h (2 Bft)
24.03.2010 13:00 19,0 C 19,9 C 8,2 UV-I 4,2 C 50 % 51 % 100 % 1012,6 hPa 0,0 l/m 12,2 km/h (2 Bft) 0,90 h 12,0 km/h (2 Bft)
24.03.2010 14:00 20,1 C 21,4 C 7,1 UV-I 3,1 C 47 % 47 % 86 % 1013,7 hPa 0,0 l/m 11,6 km/h (2 Bft) 0,57 h 10,0 km/h (2 Bft)
24.03.2010 15:00 20,0 C 21,4 C 3,7 UV-I 1,1 C 47 % 46 % 31 % 1011,7 hPa 0,0 l/m 9,7 km/h (2 Bft) 0,00 h 9,0 km/h (2 Bft)
24.03.2010 16:00 20,2 C 21,4 C 2,7 UV-I 2,0 C 47 % 45 % 57 % 1010,5 hPa 0,0 l/m 9,7 km/h (2 Bft) 0,00 h 7,2 km/h (2 Bft)
24.03.2010 17:00 19,9 C 20,7 C 0,5 UV-I 0,2 C 47 % 46 % 7 % 1009,5 hPa 0,0 l/m 7,1 km/h (2 Bft) 0,00 h 6,1 km/h (2 Bft)
24.03.2010 18:00 19,4 C 18,9 C 0,0 UV-I 0,0 C 48 % 50 % 0 % 1009,2 hPa 0,0 l/m 6,3 km/h (2 Bft) 0,00 h 5,5 km/h (1 Bft)
24.03.2010 19:00 19,0 C 17,2 C 0,0 UV-I 0,0 C 49 % 55 % 0 % 1009,3 hPa 0,0 l/m 3,3 km/h (1 Bft) 0,00 h 2,5 km/h (1 Bft)
24.03.2010 20:00 18,6 C 15,1 C 0,0 UV-I 0,0 C 50 % 64 % 0 % 1009,2 hPa 0,0 l/m 0,0 km/h (0 Bft) 0,00 h 0,0 km/h (0 Bft)
24.03.2010 21:00 18,3 C 13,3 C 0,0 UV-I 0,0 C 51 % 70 % 0 % 1009,1 hPa 0,0 l/m 0,0 km/h (0 Bft) 0,00 h 0,0 km/h (0 Bft)
24.03.2010 22:00 18,2 C 12,6 C 0,0 UV-I 0,0 C 52 % 72 % 0 % 1009,0 hPa 0,0 l/m 0,7 km/h (0 Bft) 0,00 h 1,1 km/h (1 Bft)
24.03.2010 23:00 18,1 C 12,2 C 0,0 UV-I 0,0 C 52 % 73 % 0 % 1008,8 hPa 0,0 l/m 2,4 km/h (1 Bft) 0,00 h 2,5 km/h (1 Bft)
25.03.2010 00:00 18,0 C 11,7 C 0,0 UV-I 0,0 C 52 % 75 % 0 % 1008,9 hPa 0,0 l/m 0,7 km/h (0 Bft) 0,00 h 1,0 km/h (0 Bft)
25.03.2010 01:00 18,0 C 11,2 C 0,0 UV-I 0,0 C 52 % 76 % 0 % 1008,6 hPa 0,0 l/m 1,4 km/h (1 Bft) 0,00 h 1,7 km/h (1 Bft)
25.03.2010 02:00 17,8 C 10,7 C 0,0 UV-I 0,0 C 53 % 78 % 0 % 1008,1 hPa 0,0 l/m 2,2 km/h (1 Bft) 0,00 h 2,0 km/h (1 Bft)
25.03.2010 03:00 17,5 C 10,3 C 0,0 UV-I 0,0 C 53 % 79 % 0 % 1007,7 hPa 0,0 l/m 2,3 km/h (1 Bft) 0,00 h 2,4 km/h (1 Bft)
25.03.2010 04:00 17,4 C 10,1 C 0,0 UV-I 0,0 C 53 % 80 % 0 % 1007,3 hPa 0,0 l/m 2,7 km/h (1 Bft) 0,00 h 3,1 km/h (1 Bft)
25.03.2010 05:00 17,2 C 10,3 C 0,0 UV-I 0,0 C 54 % 80 % 0 % 1007,2 hPa 0,0 l/m 5,6 km/h (1 Bft) 0,00 h 5,0 km/h (1 Bft)
25.03.2010 06:00 17,2 C 10,4 C 0,0 UV-I 0,0 C 54 % 80 % 0 % 1007,1 hPa 0,0 l/m 5,8 km/h (2 Bft) 0,00 h 5,4 km/h (1 Bft)
25.03.2010 07:00 17,2 C 10,5 C 0,0 UV-I 0,2 C 54 % 81 % 4 % 1007,0 hPa 0,0 l/m 7,2 km/h (2 Bft) 0,23 h 7,1 km/h (2 Bft)
25.03.2010 08:00 17,2 C 11,1 C 0,8 UV-I 1,0 C 54 % 80 % 28 % 1007,1 hPa 0,0 l/m 3,1 km/h (1 Bft) 0,00 h 4,2 km/h (1 Bft)
25.03.2010 09:00 17,5 C 12,7 C 1,9 UV-I 4,6 C 54 % 77 % 94 % 1006,9 hPa 0,0 l/m 8,4 km/h (2 Bft) 0,57 h 8,5 km/h (2 Bft)
25.03.2010 10:00 17,9 C 15,7 C 5,1 UV-I 5,2 C 53 % 69 % 100 % 1006,7 hPa 0,0 l/m 9,1 km/h (2 Bft) 0,50 h 6,7 km/h (2 Bft)
25.03.2010 11:00 18,3 C 18,4 C 6,2 UV-I 3,7 C 53 % 61 % 96 % 1005,9 hPa 0,0 l/m 9,6 km/h (2 Bft) 0,75 h 10,4 km/h (2 Bft)
25.03.2010 12:00 18,9 C 20,7 C 9,2 UV-I 4,3 C 52 % 49 % 99 % 1005,4 hPa 0,0 l/m 15,8 km/h (3 Bft) 0,93 h 14,2 km/h (3 Bft)
25.03.2010 13:00 20,2 C 22,7 C 10,0 UV-I 3,6 C 48 % 42 % 97 % 1007,2 hPa 0,0 l/m 15,1 km/h (3 Bft) 0,73 h 13,9 km/h (3 Bft)
25.03.2010 14:00 21,0 C 23,1 C 5,8 UV-I 2,5 C 45 % 41 % 72 % 1008,2 hPa 0,0 l/m 9,2 km/h (2 Bft) 0,53 h 8,0 km/h (2 Bft)
25.03.2010 15:00 20,5 C 22,4 C 2,2 UV-I 0,9 C 46 % 42 % 25 % 1005,3 hPa 0,0 l/m 9,4 km/h (2 Bft) 0,00 h 8,1 km/h (2 Bft)
25.03.2010 16:00 20,6 C 21,8 C 0,7 UV-I 0,5 C 46 % 44 % 13 % 1005,2 hPa 0,0 l/m 11,5 km/h (2 Bft) 0,00 h 8,8 km/h (2 Bft)
25.03.2010 17:00 20,1 C 20,5 C 0,0 UV-I 0,0 C 47 % 48 % 0 % 1004,5 hPa 0,0 l/m 8,8 km/h (2 Bft) 0,00 h 8,1 km/h (2 Bft)
25.03.2010 18:00 19,7 C 18,5 C 0,0 UV-I 0,0 C 49 % 59 % 0 % 1004,7 hPa 0,3 l/m 10,2 km/h (2 Bft) 0,00 h 8,8 km/h (2 Bft)
25.03.2010 19:00 19,4 C 16,6 C 0,0 UV-I 0,0 C 51 % 72 % 0 % 1004,7 hPa 0,1 l/m 0,2 km/h (0 Bft) 0,00 h 0,1 km/h (0 Bft)
25.03.2010 20:00 19,2 C 14,9 C 0,0 UV-I 0,0 C 52 % 77 % 0 % 1004,9 hPa 0,0 l/m 0,2 km/h (0 Bft) 0,00 h 0,5 km/h (0 Bft)
25.03.2010 21:00 19,0 C 13,5 C 0,0 UV-I 0,0 C 53 % 78 % 0 % 1005,1 hPa 0,0 l/m 0,8 km/h (0 Bft) 0,00 h 0,6 km/h (0 Bft)
25.03.2010 22:00 18,8 C 12,8 C 0,0 UV-I 0,1 C 53 % 78 % 0 % 1005,2 hPa 0,0 l/m 1,5 km/h (1 Bft) 0,00 h 2,0 km/h (1 Bft)
25.03.2010 23:00 18,7 C 14,0 C 0,0 UV-I 0,0 C 53 % 75 % 0 % 1006,1 hPa 0,0 l/m 10,8 km/h (2 Bft) 0,00 h 8,9 km/h (2 Bft)
26.03.2010 00:00 18,6 C 13,6 C 0,0 UV-I 0,0 C 55 % 79 % 0 % 1006,6 hPa 0,0 l/m 9,8 km/h (2 Bft) 0,00 h 7,7 km/h (2 Bft)
26.03.2010 01:00 18,5 C 12,9 C 0,0 UV-I 0,0 C 55 % 80 % 0 % 1006,4 hPa 0,0 l/m 3,8 km/h (1 Bft) 0,00 h 3,6 km/h (1 Bft)
26.03.2010 02:00 18,4 C 12,6 C 0,0 UV-I 0,0 C 55 % 79 % 0 % 1006,2 hPa 0,0 l/m 6,4 km/h (2 Bft) 0,00 h 4,5 km/h (1 Bft)
26.03.2010 03:00 18,3 C 12,7 C 0,0 UV-I 0,0 C 54 % 76 % 0 % 1006,5 hPa 0,0 l/m 7,3 km/h (2 Bft) 0,00 h 6,0 km/h (2 Bft)
26.03.2010 04:00 18,2 C 12,7 C 0,0 UV-I 0,0 C 53 % 72 % 0 % 1006,5 hPa 0,0 l/m 7,2 km/h (2 Bft) 0,00 h 6,1 km/h (2 Bft)
26.03.2010 05:00 18,0 C 12,3 C 0,0 UV-I 0,0 C 53 % 72 % 0 % 1006,2 hPa 0,0 l/m 4,4 km/h (1 Bft) 0,00 h 3,7 km/h (1 Bft)
26.03.2010 06:00 18,0 C 11,8 C 0,0 UV-I 0,0 C 53 % 75 % 0 % 1006,3 hPa 0,0 l/m 0,4 km/h (0 Bft) 0,00 h 0,4 km/h (0 Bft)
26.03.2010 07:00 17,9 C 11,2 C 0,0 UV-I 0,0 C 54 % 78 % 0 % 1006,7 hPa 0,5 l/m 2,5 km/h (1 Bft) 0,00 h 3,1 km/h (1 Bft)
26.03.2010 08:00 17,8 C 10,7 C 0,0 UV-I 0,0 C 55 % 82 % 0 % 1006,9 hPa 0,1 l/m 1,4 km/h (1 Bft) 0,00 h 1,1 km/h (1 Bft)
26.03.2010 09:00 17,8 C 10,5 C 0,1 UV-I 0,0 C 55 % 85 % 0 % 1006,6 hPa 1,1 l/m 1,0 km/h (0 Bft) 0,00 h 1,4 km/h (1 Bft)
26.03.2010 10:00 17,7 C 10,4 C 0,1 UV-I 0,0 C 56 % 88 % 0 % 1006,7 hPa 2,2 l/m 0,6 km/h (0 Bft) 0,00 h 0,5 km/h (0 Bft)
26.03.2010 11:00 17,7 C 10,2 C 0,2 UV-I 0,0 C 56 % 88 % 0 % 1007,0 hPa 1,9 l/m 2,6 km/h (1 Bft) 0,00 h 2,6 km/h (1 Bft)
26.03.2010 12:00 17,6 C 10,0 C 0,2 UV-I 0,0 C 57 % 89 % 0 % 1007,0 hPa 1,2 l/m 3,6 km/h (1 Bft) 0,00 h 3,7 km/h (1 Bft)
26.03.2010 13:00 17,5 C 9,9 C 0,1 UV-I 0,0 C 57 % 89 % 0 % 1007,3 hPa 0,7 l/m 5,2 km/h (1 Bft) 0,00 h 4,3 km/h (1 Bft)
26.03.2010 14:00 17,4 C 9,8 C 0,2 UV-I 0,0 C 57 % 90 % 0 % 1007,0 hPa 0,2 l/m 4,5 km/h (1 Bft) 0,00 h 3,6 km/h (1 Bft)
26.03.2010 15:00 17,4 C 10,0 C 0,1 UV-I 0,0 C 57 % 90 % 1 % 1006,8 hPa 0,0 l/m 2,4 km/h (1 Bft) 0,00 h 2,2 km/h (1 Bft)
26.03.2010 16:00 17,5 C 10,5 C 0,3 UV-I 0,5 C 57 % 89 % 13 % 1006,8 hPa 0,0 l/m 3,0 km/h (1 Bft) 0,00 h 3,0 km/h (1 Bft)
26.03.2010 17:00 17,5 C 10,7 C 0,0 UV-I 0,0 C 57 % 88 % 0 % 1006,4 hPa 0,0 l/m 2,3 km/h (1 Bft) 0,00 h 2,6 km/h (1 Bft)
26.03.2010 18:00 17,4 C 10,6 C 0,0 UV-I 0,0 C 57 % 88 % 0 % 1006,3 hPa 0,0 l/m 2,7 km/h (1 Bft) 0,00 h 2,3 km/h (1 Bft)
26.03.2010 19:00 17,3 C 10,1 C 0,0 UV-I 0,0 C 57 % 88 % 0 % 1006,5 hPa 0,0 l/m 3,9 km/h (1 Bft) 0,00 h 3,6 km/h (1 Bft)
26.03.2010 20:00 17,2 C 9,9 C 0,0 UV-I 0,0 C 57 % 88 % 0 % 1006,7 hPa 0,0 l/m 8,9 km/h (2 Bft) 0,00 h 7,0 km/h (2 Bft)
26.03.2010 21:00 17,1 C 9,5 C 0,0 UV-I 0,0 C 57 % 88 % 0 % 1006,5 hPa 0,0 l/m 4,4 km/h (1 Bft) 0,00 h 4,4 km/h (1 Bft)
26.03.2010 22:00 16,9 C 9,0 C 0,0 UV-I 0,0 C 56 % 85 % 0 % 1006,4 hPa 0,0 l/m 3,8 km/h (1 Bft) 0,00 h 4,3 km/h (1 Bft)
26.03.2010 23:00 16,7 C 8,9 C 0,0 UV-I 0,0 C 54 % 83 % 0 % 1006,1 hPa 0,0 l/m 7,7 km/h (2 Bft) 0,00 h 7,0 km/h (2 Bft)
27.03.2010 00:00 16,6 C 9,1 C 0,0 UV-I 0,0 C 54 % 83 % 0 % 1005,8 hPa 0,0 l/m 7,9 km/h (2 Bft) 0,00 h 6,2 km/h (2 Bft)
27.03.2010 01:00 16,4 C 8,6 C 0,0 UV-I 0,0 C 54 % 83 % 0 % 1005,6 hPa 0,0 l/m 4,9 km/h (1 Bft) 0,00 h 4,2 km/h (1 Bft)
27.03.2010 02:00 16,3 C 8,0 C 0,0 UV-I 0,0 C 55 % 85 % 0 % 1005,4 hPa 0,0 l/m 3,0 km/h (1 Bft) 0,00 h 3,0 km/h (1 Bft)
27.03.2010 03:00 16,3 C 7,2 C 0,0 UV-I 0,0 C 55 % 87 % 0 % 1005,2 hPa 0,0 l/m 2,5 km/h (1 Bft) 0,00 h 2,3 km/h (1 Bft)
27.03.2010 04:00 16,2 C 6,4 C 0,0 UV-I 0,0 C 55 % 89 % 0 % 1005,1 hPa 0,0 l/m 1,2 km/h (1 Bft) 0,00 h 0,9 km/h (0 Bft)
27.03.2010 05:00 16,1 C 5,9 C 0,0 UV-I 0,0 C 55 % 90 % 0 % 1004,9 hPa 0,0 l/m 1,1 km/h (1 Bft) 0,00 h 1,2 km/h (1 Bft)
27.03.2010 06:00 16,0 C 6,3 C 0,0 UV-I 0,0 C 55 % 91 % 0 % 1004,7 hPa 0,0 l/m 3,2 km/h (1 Bft) 0,00 h 2,9 km/h (1 Bft)
27.03.2010 07:00 15,9 C 7,2 C 0,0 UV-I 0,6 C 54 % 89 % 8 % 1005,2 hPa 0,0 l/m 3,3 km/h (1 Bft) 0,37 h 3,1 km/h (1 Bft)
27.03.2010 08:00 16,1 C 8,3 C 0,7 UV-I 1,2 C 54 % 86 % 34 % 1005,3 hPa 0,0 l/m 4,1 km/h (1 Bft) 0,27 h 3,6 km/h (1 Bft)
27.03.2010 09:00 16,2 C 9,7 C 2,2 UV-I 4,5 C 53 % 78 % 92 % 1005,3 hPa 0,0 l/m 9,8 km/h (2 Bft) 0,70 h 8,6 km/h (2 Bft)
27.03.2010 10:00 16,3 C 10,6 C 3,4 UV-I 2,3 C 52 % 74 % 57 % 1005,4 hPa 0,0 l/m 9,7 km/h (2 Bft) 0,20 h 8,2 km/h (2 Bft)
27.03.2010 11:00 16,7 C 12,2 C 7,9 UV-I 4,6 C 51 % 67 % 96 % 1005,2 hPa 0,0 l/m 10,4 km/h (2 Bft) 0,73 h 9,5 km/h (2 Bft)
27.03.2010 12:00 17,5 C 13,9 C 6,7 UV-I 4,7 C 50 % 60 % 91 % 1005,3 hPa 0,0 l/m 8,6 km/h (2 Bft) 0,67 h 7,6 km/h (2 Bft)
27.03.2010 13:00 18,2 C 14,0 C 3,7 UV-I 1,5 C 48 % 58 % 43 % 1005,8 hPa 0,0 l/m 4,7 km/h (1 Bft) 0,10 h 4,4 km/h (1 Bft)
27.03.2010 14:00 18,9 C 14,6 C 5,6 UV-I 3,1 C 45 % 56 % 83 % 1007,2 hPa 0,0 l/m 8,0 km/h (2 Bft) 0,55 h 7,2 km/h (2 Bft)
27.03.2010 15:00 18,9 C 14,3 C 2,2 UV-I 0,8 C 45 % 56 % 24 % 1006,3 hPa 0,0 l/m 5,6 km/h (1 Bft) 0,03 h 5,4 km/h (1 Bft)
27.03.2010 16:00 19,4 C 14,5 C 2,8 UV-I 2,4 C 44 % 56 % 65 % 1006,6 hPa 0,0 l/m 9,1 km/h (2 Bft) 0,57 h 7,4 km/h (2 Bft)
27.03.2010 17:00 19,1 C 13,6 C 0,1 UV-I 0,0 C 44 % 58 % 0 % 1006,4 hPa 0,0 l/m 6,1 km/h (2 Bft) 0,00 h 5,5 km/h (1 Bft)
27.03.2010 18:00 18,3 C 12,6 C 0,0 UV-I 0,0 C 45 % 63 % 0 % 1006,3 hPa 0,0 l/m 7,5 km/h (2 Bft) 0,00 h 6,6 km/h (2 Bft)
27.03.2010 19:00 17,7 C 11,8 C 0,0 UV-I 0,0 C 47 % 67 % 0 % 1006,7 hPa 0,0 l/m 5,9 km/h (2 Bft) 0,00 h 4,8 km/h (1 Bft)
27.03.2010 20:00 17,2 C 11,0 C 0,0 UV-I 0,0 C 48 % 70 % 0 % 1007,3 hPa 0,0 l/m 6,3 km/h (2 Bft) 0,00 h 5,6 km/h (1 Bft)
27.03.2010 21:00 17,0 C 10,4 C 0,0 UV-I 0,0 C 50 % 75 % 0 % 1007,9 hPa 0,1 l/m 2,9 km/h (1 Bft) 0,00 h 2,7 km/h (1 Bft)
27.03.2010 22:00 16,9 C 9,8 C 0,0 UV-I 0,0 C 51 % 80 % 0 % 1008,1 hPa 0,3 l/m 1,9 km/h (1 Bft) 0,00 h 2,0 km/h (1 Bft)
27.03.2010 23:00 16,8 C 9,9 C 0,0 UV-I 0,0 C 52 % 80 % 0 % 1008,2 hPa 0,0 l/m 6,7 km/h (2 Bft) 0,00 h 6,3 km/h (2 Bft)
28.03.2010 00:00 16,7 C 9,9 C 0,0 UV-I 0,0 C 52 % 78 % 0 % 1008,2 hPa 0,0 l/m 8,1 km/h (2 Bft) 0,00 h 8,4 km/h (2 Bft)
28.03.2010 01:00 16,5 C 9,7 C 0,0 UV-I 0,0 C 51 % 78 % 0 % 1008,1 hPa 0,0 l/m 7,6 km/h (2 Bft) 0,00 h 6,4 km/h (2 Bft)
28.03.2010 03:00 16,4 C 9,6 C 0,0 UV-I 0,0 C 52 % 82 % 0 % 1008,2 hPa 0,0 l/m 8,6 km/h (2 Bft) 0,00 h 7,8 km/h (2 Bft)
28.03.2010 04:00 16,4 C 9,4 C 0,0 UV-I 0,0 C 53 % 85 % 0 % 1008,1 hPa 0,0 l/m 8,5 km/h (2 Bft) 0,00 h 6,9 km/h (2 Bft)
28.03.2010 05:00 16,3 C 9,1 C 0,0 UV-I 0,0 C 55 % 88 % 0 % 1008,6 hPa 1,1 l/m 7,5 km/h (2 Bft) 0,00 h 6,4 km/h (2 Bft)
28.03.2010 06:00 16,2 C 8,5 C 0,0 UV-I 0,0 C 55 % 89 % 0 % 1008,8 hPa 0,0 l/m 4,9 km/h (1 Bft) 0,00 h 4,4 km/h (1 Bft)
28.03.2010 07:00 16,2 C 8,4 C 0,0 UV-I 0,0 C 55 % 89 % 0 % 1009,3 hPa 0,0 l/m 6,4 km/h (2 Bft) 0,00 h 5,0 km/h (1 Bft)
28.03.2010 08:00 16,1 C 8,5 C 0,0 UV-I 0,0 C 55 % 88 % 0 % 1009,6 hPa 0,0 l/m 9,5 km/h (2 Bft) 0,00 h 8,6 km/h (2 Bft)
28.03.2010 09:00 16,1 C 8,9 C 0,4 UV-I 0,3 C 54 % 83 % 7 % 1010,2 hPa 0,0 l/m 10,4 km/h (2 Bft) 0,00 h 8,6 km/h (2 Bft)
28.03.2010 10:00 16,2 C 9,6 C 2,3 UV-I 3,1 C 52 % 77 % 76 % 1010,5 hPa 0,0 l/m 10,9 km/h (2 Bft) 0,60 h 9,8 km/h (2 Bft)
28.03.2010 11:00 16,5 C 10,8 C 4,5 UV-I 3,6 C 50 % 67 % 94 % 1010,4 hPa 0,0 l/m 12,7 km/h (3 Bft) 0,93 h 10,1 km/h (2 Bft)
28.03.2010 12:00 16,8 C 11,8 C 3,4 UV-I 2,6 C 48 % 61 % 73 % 1010,3 hPa 0,0 l/m 11,4 km/h (2 Bft) 0,40 h 7,8 km/h (2 Bft)
28.03.2010 13:00 17,1 C 12,3 C 2,7 UV-I 1,5 C 46 % 58 % 43 % 1009,9 hPa 0,0 l/m 10,9 km/h (2 Bft) 0,10 h 9,6 km/h (2 Bft)
28.03.2010 14:00 17,4 C 12,4 C 2,3 UV-I 1,1 C 46 % 60 % 32 % 1009,6 hPa 0,0 l/m 12,7 km/h (3 Bft) 0,07 h 9,7 km/h (2 Bft)
28.03.2010 15:00 17,4 C 12,5 C 0,7 UV-I 0,7 C 46 % 61 % 19 % 1008,8 hPa 0,0 l/m 8,8 km/h (2 Bft) 0,00 h 7,7 km/h (2 Bft)
28.03.2010 16:00 17,5 C 12,2 C 1,5 UV-I 1,0 C 46 % 65 % 28 % 1008,3 hPa 0,0 l/m 14,8 km/h (3 Bft) 0,13 h 11,3 km/h (2 Bft)
28.03.2010 17:00 17,8 C 12,1 C 0,7 UV-I 0,4 C 47 % 70 % 13 % 1008,5 hPa 0,0 l/m 8,3 km/h (2 Bft) 0,00 h 6,1 km/h (2 Bft)
28.03.2010 18:00 17,4 C 11,4 C 0,0 UV-I 0,0 C 49 % 77 % 0 % 1007,7 hPa 1,1 l/m 4,9 km/h (1 Bft) 0,00 h 3,3 km/h (1 Bft)
28.03.2010 19:00 16,8 C 10,5 C 0,0 UV-I 0,0 C 52 % 83 % 0 % 1007,7 hPa 0,8 l/m 2,8 km/h (1 Bft) 0,00 h 3,2 km/h (1 Bft)
28.03.2010 20:00 16,5 C 9,8 C 0,0 UV-I 0,0 C 54 % 86 % 0 % 1007,3 hPa 0,0 l/m 2,0 km/h (1 Bft) 0,00 h 2,2 km/h (1 Bft)
28.03.2010 21:00 16,4 C 9,6 C 0,0 UV-I 0,0 C 54 % 85 % 0 % 1007,6 hPa 0,0 l/m 6,9 km/h (2 Bft) 0,00 h 5,2 km/h (1 Bft)
28.03.2010 22:00 16,2 C 9,6 C 0,0 UV-I 0,0 C 55 % 86 % 0 % 1007,5 hPa 0,0 l/m 5,6 km/h (1 Bft) 0,00 h 5,0 km/h (1 Bft)
28.03.2010 23:00 16,2 C 9,6 C 0,0 UV-I 0,0 C 56 % 88 % 0 % 1007,1 hPa 0,0 l/m 4,8 km/h (1 Bft) 0,00 h 4,4 km/h (1 Bft)
Min-Datum _ 22.03.10 27.03.10 22.03.10 22.03.10 27.03.10 25.03.10 22.03.10 25.03.10 - 22.03.10 - 22.03.10
_ Min-Zeit 04:58 05:38 00:00 00:00 16:28 14:06 00:00 17:32 - 00:00 - 00:00
Minimum _ 15,6 C 5,8 C 0,0 UV-I 0,0 C 43 % 40 % 0 % 1004,4 hPa - 0,0 km/h (0 Bft) - 0,0 km/h (0 Bft)
Max-Datum _ 25.03.10 25.03.10 27.03.10 23.03.10 22.03.10 22.03.10 22.03.10 22.03.10 26.03.10 25.03.10 22.03.10 25.03.10
_ Max-Zeit 14:34 14:34 12:00 15:00 00:00 08:28 12:18 11:12 10:04 13:22 12:18 13:32
Maximum _ 21,2 C 23,5 C 12,5 UV-I 7,4 C 61 % 96 % 100 % 1022,9 hPa 2,2 l/m 22,5 km/h
NO (4 Bft)
0,03 h 32,2 km/h
NO (5 Bft)
Durchschnitt _ 17,3 C 11,5 C 1,0 UV-I 0,8 C 53 % 76 % 19 % 1011,6 hPa #11,6 l/m 4,8 km/h (1 Bft) #17:30 h 4,3 km/h (1 Bft)
© 2012 W. Hausmann